createdAt,value
2022-11-05T00:03:13.302Z,98490.63
2022-11-05T00:06:33.768Z,98481.66
2022-11-05T00:09:35.336Z,98485.38
2022-11-05T00:12:55.589Z,98479.09
2022-11-05T00:16:15.707Z,98467.44
2022-11-05T00:19:17.290Z,98463.72
2022-11-05T00:22:37.345Z,98455.00
2022-11-05T00:25:38.845Z,98461.91
2022-11-05T00:28:44.703Z,98451.06
2022-11-05T00:31:46.310Z,98446.28
2022-11-05T00:34:47.866Z,98448.13
2022-11-05T00:37:50.587Z,98443.66
2022-11-05T00:40:52.364Z,98439.97
2022-11-05T00:44:12.528Z,98445.53
2022-11-05T00:47:32.666Z,98436.28
2022-11-05T00:50:34.300Z,98438.94
2022-11-05T00:53:35.868Z,98442.38
2022-11-05T00:56:37.408Z,98451.16
2022-11-05T00:59:38.948Z,98439.47
2022-11-05T01:02:40.575Z,98444.75
2022-11-05T01:05:46.324Z,98446.91
2022-11-05T01:08:47.899Z,98443.72
2022-11-05T01:11:49.441Z,98437.56
2022-11-05T01:14:50.991Z,98437.25
2022-11-05T01:17:52.640Z,98446.47
2022-11-05T01:20:54.231Z,98448.25
2022-11-05T01:23:55.820Z,98448.72
2022-11-05T01:26:57.538Z,98446.34
2022-11-05T01:29:59.059Z,98442.88
2022-11-05T01:33:00.631Z,98452.34
2022-11-05T01:36:02.212Z,98431.97
2022-11-05T01:39:03.967Z,98430.38
2022-11-05T01:42:09.704Z,98429.81
2022-11-05T01:45:12.840Z,98427.91
2022-11-05T01:48:15.800Z,98438.97
2022-11-05T01:51:18.163Z,98435.75
2022-11-05T01:54:20.498Z,98428.91
2022-11-05T01:57:22.221Z,98442.22
2022-11-05T02:00:23.772Z,98427.91
2022-11-05T02:03:25.342Z,98425.44
2022-11-05T02:06:26.927Z,98429.50
2022-11-05T02:09:29.980Z,98426.59
2022-11-05T02:12:31.611Z,98421.31
2022-11-05T02:15:37.087Z,98411.78
2022-11-05T02:18:48.269Z,98417.25
2022-11-05T02:21:49.764Z,98415.72
2022-11-05T02:24:51.900Z,98401.41
2022-11-05T02:28:02.598Z,98404.84
2022-11-05T02:31:22.282Z,98399.16
2022-11-05T02:34:23.798Z,98392.88
2022-11-05T02:37:25.321Z,98396.34
2022-11-05T02:40:49.900Z,98399.00
2022-11-05T02:44:10.072Z,98388.97
2022-11-05T02:47:16.981Z,98397.69
2022-11-05T02:50:22.390Z,98395.84
2022-11-05T02:53:27.839Z,98399.63
2022-11-05T02:56:30.783Z,98395.44
2022-11-05T02:59:32.386Z,98383.28
2022-11-05T03:02:34.041Z,98385.34
2022-11-05T03:05:43.736Z,98379.28
2022-11-05T03:09:07.151Z,98395.66
2022-11-05T03:12:08.644Z,98384.56
2022-11-05T03:15:22.625Z,98376.88
2022-11-05T03:18:39.399Z,98370.50
2022-11-05T03:21:44.002Z,98373.63
2022-11-05T03:24:46.784Z,98362.97
2022-11-05T03:27:49.186Z,98367.75
2022-11-05T03:30:51.550Z,98369.91
2022-11-05T03:33:53.348Z,98359.41
2022-11-05T03:36:54.859Z,98364.69
2022-11-05T03:39:57.382Z,98356.25
2022-11-05T03:42:58.909Z,98348.59
2022-11-05T03:46:07.759Z,98344.34
2022-11-05T03:49:09.774Z,98347.31
2022-11-05T03:52:12.329Z,98339.38
2022-11-05T03:55:13.948Z,98340.69
2022-11-05T03:58:15.651Z,98339.09
2022-11-05T04:01:17.406Z,98339.38
2022-11-05T04:04:19.150Z,98335.38
2022-11-05T04:07:39.107Z,98336.19
2022-11-05T04:10:59.590Z,98338.59
2022-11-05T04:14:01.170Z,98343.09
2022-11-05T04:17:09.736Z,98333.00
2022-11-05T04:20:30.060Z,98338.31
2022-11-05T04:23:50.368Z,98338.56
2022-11-05T04:26:51.962Z,98343.31
2022-11-05T04:30:11.859Z,98333.53
2022-11-05T04:33:14.792Z,98338.34
2022-11-05T04:36:16.562Z,98332.25
2022-11-05T04:39:18.556Z,98326.44
2022-11-05T04:42:20.088Z,98332.53
2022-11-05T04:45:24.660Z,98324.84
2022-11-05T04:48:26.199Z,98320.34
2022-11-05T04:51:27.812Z,98314.75
2022-11-05T04:54:29.401Z,98313.44
2022-11-05T04:57:30.972Z,98321.88
2022-11-05T05:00:32.501Z,98312.63
2022-11-05T05:03:34.288Z,98303.09
2022-11-05T05:06:36.430Z,98308.16
2022-11-05T05:09:37.956Z,98305.78
2022-11-05T05:12:39.539Z,98296.50
2022-11-05T05:15:41.360Z,98303.38
2022-11-05T05:18:46.207Z,98298.09
2022-11-05T05:21:48.137Z,98302.84
2022-11-05T05:24:52.774Z,98308.69
2022-11-05T05:27:56.375Z,98299.41
2022-11-05T05:31:00.882Z,98293.56
2022-11-05T05:34:02.564Z,98304.44
2022-11-05T05:37:04.355Z,98303.66
2022-11-05T05:40:06.131Z,98289.84
2022-11-05T05:43:07.782Z,98289.34
2022-11-05T05:46:14.447Z,98282.22
2022-11-05T05:49:16.164Z,98275.88
2022-11-05T05:52:17.772Z,98262.09
2022-11-05T05:55:19.297Z,98268.75
2022-11-05T05:58:21.034Z,98265.84
2022-11-05T06:01:23.036Z,98267.16
2022-11-05T06:04:24.775Z,98271.38
2022-11-05T06:07:26.310Z,98260.78
2022-11-05T06:10:28.041Z,98261.59
2022-11-05T06:13:29.835Z,98248.59
2022-11-05T06:16:35.924Z,98252.59
2022-11-05T06:19:37.461Z,98255.78
2022-11-05T06:22:39.236Z,98250.19
2022-11-05T06:25:41.505Z,98235.09
2022-11-05T06:28:43.513Z,98235.38
2022-11-05T06:31:45.020Z,98231.41
2022-11-05T06:34:46.644Z,98226.38
2022-11-05T06:37:48.164Z,98230.88
2022-11-05T06:40:49.714Z,98232.44
2022-11-05T06:43:51.233Z,98221.25
2022-11-05T06:46:52.782Z,98226.56
2022-11-05T06:49:54.336Z,98231.09
2022-11-05T06:52:59.542Z,98228.16
2022-11-05T06:56:04.563Z,98218.88
2022-11-05T06:59:06.410Z,98212.00
2022-11-05T07:02:09.867Z,98200.06
2022-11-05T07:05:11.618Z,98188.16
2022-11-05T07:08:13.352Z,98198.47
2022-11-05T07:11:14.891Z,98206.72
2022-11-05T07:14:16.412Z,98196.41
2022-11-05T07:17:18.675Z,98196.41
2022-11-05T07:20:20.199Z,98196.97
2022-11-05T07:23:21.779Z,98195.66
2022-11-05T07:26:23.544Z,98190.91
2022-11-05T07:29:25.138Z,98192.47
2022-11-05T07:32:26.728Z,98192.22
2022-11-05T07:35:28.308Z,98189.59
2022-11-05T07:38:29.827Z,98194.88
2022-11-05T07:41:31.388Z,98192.22
2022-11-05T07:44:32.902Z,98187.44
2022-11-05T07:47:36.384Z,98191.94
2022-11-05T07:50:37.939Z,98185.28
2022-11-05T07:53:44.912Z,98181.56
2022-11-05T07:56:47.268Z,98171.00
2022-11-05T07:59:48.897Z,98177.34
2022-11-05T08:03:07.645Z,98173.06
2022-11-05T08:06:10.217Z,98172.50
2022-11-05T08:09:11.743Z,98178.34
2022-11-05T08:12:13.399Z,98171.97
2022-11-05T08:15:15.108Z,98169.59
2022-11-05T08:18:17.564Z,98172.50
2022-11-05T08:21:19.096Z,98171.13
2022-11-05T08:24:20.621Z,98173.53
2022-11-05T08:27:22.237Z,98176.19
2022-11-05T08:30:23.992Z,98171.41
2022-11-05T08:33:25.716Z,98180.16
2022-11-05T08:36:27.276Z,98167.97
2022-11-05T08:39:28.888Z,98162.44
2022-11-05T08:42:30.408Z,98154.47
2022-11-05T08:45:32.118Z,98151.84
2022-11-05T08:48:33.678Z,98143.06
2022-11-05T08:51:35.194Z,98140.41
2022-11-05T08:54:36.744Z,98129.03
2022-11-05T08:57:38.312Z,98116.56
2022-11-05T09:00:40.079Z,98104.16
2022-11-05T09:03:41.728Z,98111.53
2022-11-05T09:06:43.320Z,98108.34
2022-11-05T09:09:44.910Z,98092.97
2022-11-05T09:12:46.465Z,98079.72
2022-11-05T09:15:48.850Z,98089.53
2022-11-05T09:18:50.539Z,98082.38
2022-11-05T09:21:52.134Z,98088.22
2022-11-05T09:24:53.880Z,98092.97
2022-11-05T09:28:04.973Z,98085.25
2022-11-05T09:31:10.025Z,98074.88
2022-11-05T09:34:11.573Z,98078.06
2022-11-05T09:37:14.248Z,98076.69
2022-11-05T09:40:16.328Z,98076.44
2022-11-05T09:43:19.913Z,98079.09
2022-11-05T09:46:23.697Z,98075.09
2022-11-05T09:49:25.469Z,98084.91
2022-11-05T09:52:30.220Z,98076.41
2022-11-05T09:55:36.174Z,98041.41
2022-11-05T09:58:49.586Z,98028.91
2022-11-05T10:01:52.528Z,98029.41
2022-11-05T10:04:55.390Z,98024.84
2022-11-05T10:08:26.532Z,98027.97
2022-11-05T10:11:35.762Z,98008.28
2022-11-05T10:14:38.954Z,98022.56
2022-11-05T10:17:41.054Z,98030.47
2022-11-05T10:20:42.696Z,98028.09
2022-11-05T10:23:47.383Z,98026.97
2022-11-05T10:26:52.926Z,98012.91
2022-11-05T10:29:54.417Z,97997.53
2022-11-05T10:32:56.799Z,97999.41
2022-11-05T10:36:00.680Z,98004.66
2022-11-05T10:39:06.592Z,98000.88
2022-11-05T10:42:27.048Z,97992.34
2022-11-05T10:45:33.817Z,97992.63
2022-11-05T10:48:53.518Z,97997.09
2022-11-05T10:51:58.952Z,97987.81
2022-11-05T10:55:01.432Z,97983.09
2022-11-05T10:58:08.804Z,97963.72
2022-11-05T11:01:11.009Z,97958.72
2022-11-05T11:04:25.600Z,97960.28
2022-11-05T11:07:27.234Z,97946.78
2022-11-05T11:10:29.083Z,97946.53
2022-11-05T11:13:50.672Z,97946.16
2022-11-05T11:16:57.375Z,97945.91
2022-11-05T11:20:20.119Z,97937.38
2022-11-05T11:23:21.793Z,97928.69
2022-11-05T11:26:24.193Z,97930.41
2022-11-05T11:29:26.259Z,97938.38
2022-11-05T11:32:37.798Z,97931.44
2022-11-05T11:35:39.462Z,97934.53
2022-11-05T11:38:41.352Z,97914.03
2022-11-05T11:41:43.168Z,97906.00
2022-11-05T11:44:45.097Z,97914.75
2022-11-05T11:47:47.302Z,97907.28
2022-11-05T11:50:48.942Z,97903.56
2022-11-05T11:53:50.573Z,97888.13
2022-11-05T11:56:52.123Z,97881.47
2022-11-05T12:00:08.154Z,97878.81
2022-11-05T12:03:20.364Z,97854.63
2022-11-05T12:06:26.969Z,97849.75
2022-11-05T12:09:41.457Z,97853.31
2022-11-05T12:12:57.892Z,97864.25
2022-11-05T12:16:11.708Z,97862.47
2022-11-05T12:19:13.253Z,97858.19
2022-11-05T12:22:33.171Z,97862.72
2022-11-05T12:25:37.303Z,97859.00
2022-11-05T12:29:04.472Z,97855.50
2022-11-05T12:32:14.015Z,97855.41
2022-11-05T12:35:34.390Z,97849.00
2022-11-05T12:38:38.889Z,97845.69
2022-11-05T12:41:46.617Z,97834.72
2022-11-05T12:44:54.302Z,97834.91
2022-11-05T12:47:57.065Z,97833.75
2022-11-05T12:51:06.290Z,97826.25
2022-11-05T12:54:11.712Z,97808.88
2022-11-05T12:57:13.416Z,97806.31
2022-11-05T13:00:15.110Z,97795.00
2022-11-05T13:03:16.725Z,97796.78
2022-11-05T13:06:19.362Z,97789.31
2022-11-05T13:09:20.903Z,97782.44
2022-11-05T13:12:22.933Z,97786.16
2022-11-05T13:15:26.317Z,97777.13
2022-11-05T13:18:29.387Z,97771.41
2022-11-05T13:21:30.968Z,97761.75
2022-11-05T13:24:34.916Z,97757.91
2022-11-05T13:27:54.757Z,97753.06
2022-11-05T13:30:57.840Z,97743.84
2022-11-05T13:34:01.109Z,97742.88
2022-11-05T13:37:22.115Z,97727.09
2022-11-05T13:40:26.313Z,97733.50
2022-11-05T13:43:37.161Z,97724.75
2022-11-05T13:46:38.676Z,97727.22
2022-11-05T13:49:52.056Z,97721.09
2022-11-05T13:53:05.766Z,97721.59
2022-11-05T13:56:18.475Z,97725.53
2022-11-05T13:59:42.429Z,97721.00
2022-11-05T14:02:45.424Z,97714.22
2022-11-05T14:05:53.323Z,97701.41
2022-11-05T14:08:59.247Z,97692.84
2022-11-05T14:12:00.762Z,97696.59
2022-11-05T14:15:04.499Z,97691.34
2022-11-05T14:18:08.041Z,97690.63
2022-11-05T14:21:27.987Z,97690.25
2022-11-05T14:24:43.133Z,97681.97
2022-11-05T14:27:49.198Z,97678.44
2022-11-05T14:30:50.759Z,97674.84
2022-11-05T14:34:04.463Z,97680.06
2022-11-05T14:37:11.901Z,97685.28
2022-11-05T14:40:25.497Z,97682.50
2022-11-05T14:43:27.710Z,97678.34
2022-11-05T14:46:41.967Z,97678.22
2022-11-05T14:49:50.433Z,97683.59
2022-11-05T14:52:52.828Z,97685.53
2022-11-05T14:56:13.583Z,97678.63
2022-11-05T14:59:24.313Z,97684.94
2022-11-05T15:02:27.674Z,97690.25
2022-11-05T15:05:29.829Z,97694.94
2022-11-05T15:08:31.683Z,97693.19
2022-11-05T15:11:34.581Z,97692.84
2022-11-05T15:14:47.074Z,97701.56
2022-11-05T15:17:58.087Z,97699.63
2022-11-05T15:21:01.155Z,97699.72
2022-11-05T15:24:02.730Z,97713.63
2022-11-05T15:27:07.662Z,97716.09
2022-11-05T15:30:19.463Z,97723.59
2022-11-05T15:33:21.297Z,97733.44
2022-11-05T15:36:25.871Z,97736.88
2022-11-05T15:39:40.795Z,97740.63
2022-11-05T15:42:42.302Z,97747.53
2022-11-05T15:45:44.183Z,97748.31
2022-11-05T15:48:47.100Z,97744.78
2022-11-05T15:51:48.603Z,97747.13
2022-11-05T15:55:08.335Z,97750.44
2022-11-05T15:58:09.871Z,97754.72
2022-11-05T16:01:30.593Z,97759.22
2022-11-05T16:04:33.037Z,97740.78
2022-11-05T16:07:34.536Z,97742.13
2022-11-05T16:10:37.124Z,97733.25
2022-11-05T16:13:39.624Z,97733.44
2022-11-05T16:16:41.117Z,97714.63
2022-11-05T16:19:43.101Z,97734.72
2022-11-05T16:22:45.171Z,97744.06
2022-11-05T16:25:47.370Z,97744.06
2022-11-05T16:28:52.077Z,97738.16
2022-11-05T16:31:54.056Z,97717.94
2022-11-05T16:35:04.448Z,97721.41
2022-11-05T16:38:06.359Z,97708.69
2022-11-05T16:41:12.840Z,97701.63
2022-11-05T16:44:14.478Z,97697.38
2022-11-05T16:47:16.118Z,97703.31
2022-11-05T16:50:19.207Z,97689.50
2022-11-05T16:53:20.808Z,97686.19
2022-11-05T16:56:22.360Z,97687.75
2022-11-05T16:59:23.918Z,97687.28
2022-11-05T17:02:25.928Z,97672.09
2022-11-05T17:05:28.738Z,97669.72
2022-11-05T17:08:30.271Z,97654.31
2022-11-05T17:11:31.947Z,97657.94
2022-11-05T17:14:33.534Z,97689.28
2022-11-05T17:17:35.101Z,97710.97
2022-11-05T17:20:40.861Z,97725.44
2022-11-05T17:23:42.763Z,97721.13
2022-11-05T17:26:44.904Z,97734.94
2022-11-05T17:29:47.123Z,97722.53
2022-11-05T17:32:48.735Z,97711.78
2022-11-05T17:35:50.502Z,97719.38
2022-11-05T17:38:52.483Z,97724.16
2022-11-05T17:41:55.863Z,97724.16
2022-11-05T17:44:57.424Z,97734.00
2022-11-05T17:47:59.115Z,97746.00
2022-11-05T17:51:01.484Z,97757.81
2022-11-05T17:54:04.256Z,97758.41
2022-11-05T17:57:05.977Z,97755.06
2022-11-05T18:00:07.976Z,97759.38
2022-11-05T18:03:12.837Z,97763.38
2022-11-05T18:06:14.635Z,97761.28
2022-11-05T18:09:16.313Z,97757.31
2022-11-05T18:12:18.277Z,97761.63
2022-11-05T18:15:20.021Z,97769.94
2022-11-05T18:18:21.675Z,97760.59
2022-11-05T18:21:23.250Z,97757.50
2022-11-05T18:24:24.821Z,97759.72
2022-11-05T18:27:27.708Z,97762.19
2022-11-05T18:30:29.313Z,97764.47
2022-11-05T18:33:31.360Z,97774.31
2022-11-05T18:36:34.116Z,97780.97
2022-11-05T18:39:35.640Z,97779.53
2022-11-05T18:42:37.337Z,97780.41
2022-11-05T18:45:39.036Z,97766.69
2022-11-05T18:48:40.587Z,97782.72
2022-11-05T18:51:42.173Z,97791.13
2022-11-05T18:54:43.887Z,97778.31
2022-11-05T18:57:45.739Z,97784.59
2022-11-05T19:00:47.303Z,97789.16
2022-11-05T19:03:50.428Z,97794.19
2022-11-05T19:06:52.000Z,97800.28
2022-11-05T19:09:53.515Z,97798.50
2022-11-05T19:12:55.102Z,97799.00
2022-11-05T19:15:56.632Z,97804.38
2022-11-05T19:18:58.732Z,97815.66
2022-11-05T19:22:00.248Z,97816.31
2022-11-05T19:25:01.992Z,97821.66
2022-11-05T19:28:04.523Z,97822.56
2022-11-05T19:31:07.027Z,97829.56
2022-11-05T19:34:08.621Z,97839.78
2022-11-05T19:37:10.778Z,97837.66
2022-11-05T19:40:12.338Z,97836.50
2022-11-05T19:43:13.875Z,97840.91
2022-11-05T19:46:16.129Z,97837.31
2022-11-05T19:49:17.890Z,97842.00
2022-11-05T19:52:19.467Z,97834.00
2022-11-05T19:55:21.035Z,97838.56
2022-11-05T19:58:22.658Z,97842.38
2022-11-05T20:01:25.236Z,97838.66
2022-11-05T20:04:26.918Z,97837.81
2022-11-05T20:07:28.632Z,97840.41
2022-11-05T20:10:30.192Z,97845.72
2022-11-05T20:13:37.631Z,97841.09
2022-11-05T20:16:44.862Z,97837.03
2022-11-05T20:19:46.484Z,97849.44
2022-11-05T20:22:48.048Z,97851.41
2022-11-05T20:25:49.738Z,97851.28
2022-11-05T20:28:51.276Z,97847.53
2022-11-05T20:31:53.067Z,97845.00
2022-11-05T20:34:54.604Z,97856.91
2022-11-05T20:37:56.144Z,97849.16
2022-11-05T20:40:57.651Z,97862.09
2022-11-05T20:43:59.443Z,97864.63
2022-11-05T20:47:01.091Z,97864.50
2022-11-05T20:50:04.143Z,97872.19
2022-11-05T20:53:05.667Z,97878.28
2022-11-05T20:56:10.824Z,97871.72
2022-11-05T20:59:12.353Z,97872.28
2022-11-05T21:02:13.980Z,97866.44
2022-11-05T21:05:15.640Z,97875.88
2022-11-05T21:08:17.374Z,97870.59
2022-11-05T21:11:19.116Z,97878.94
2022-11-05T21:14:20.731Z,97880.84
2022-11-05T21:17:22.328Z,97882.28
2022-11-05T21:20:23.856Z,97880.75
2022-11-05T21:23:26.759Z,97876.97
2022-11-05T21:26:31.003Z,97883.03
2022-11-05T21:29:32.571Z,97877.19
2022-11-05T21:32:34.093Z,97879.91
2022-11-05T21:35:38.925Z,97875.22
2022-11-05T21:38:40.858Z,97872.56
2022-11-05T21:41:42.810Z,97873.38
2022-11-05T21:44:44.581Z,97877.84
2022-11-05T21:47:46.130Z,97878.44
2022-11-05T21:51:09.148Z,97872.50
2022-11-05T21:54:29.432Z,97884.59
2022-11-05T21:57:49.731Z,97861.09
2022-11-05T22:00:51.248Z,97873.44
2022-11-05T22:04:02.827Z,97855.47
2022-11-05T22:07:05.275Z,97871.16
2022-11-05T22:10:14.631Z,97861.41
2022-11-05T22:13:17.544Z,97856.38
2022-11-05T22:16:19.129Z,97862.72
2022-11-05T22:19:20.775Z,97863.34
2022-11-05T22:22:22.336Z,97861.75
2022-11-05T22:25:23.883Z,97868.63
2022-11-05T22:28:25.738Z,97861.50
2022-11-05T22:31:31.773Z,97861.50
2022-11-05T22:34:41.732Z,97857.31
2022-11-05T22:37:43.243Z,97849.91
2022-11-05T22:40:44.800Z,97851.13
2022-11-05T22:43:46.360Z,97848.44
2022-11-05T22:46:48.090Z,97849.94
2022-11-05T22:49:50.099Z,97836.56
2022-11-05T22:52:51.635Z,97826.44
2022-11-05T22:55:53.195Z,97828.31
2022-11-05T22:58:54.789Z,97833.06
2022-11-05T23:01:56.402Z,97830.66
2022-11-05T23:04:58.125Z,97828.19
2022-11-05T23:08:17.971Z,97819.38
2022-11-05T23:11:35.847Z,97823.13
2022-11-05T23:14:39.802Z,97813.41
2022-11-05T23:18:16.877Z,97815.28
2022-11-05T23:21:41.368Z,97817.69
2022-11-05T23:24:43.067Z,97811.06
2022-11-05T23:27:45.275Z,97798.69
2022-11-05T23:31:05.556Z,97804.19
2022-11-05T23:34:07.069Z,97796.31
2022-11-05T23:37:27.547Z,97784.75
2022-11-05T23:40:30.439Z,97787.75
2022-11-05T23:43:50.863Z,97790.34
2022-11-05T23:47:11.046Z,97772.19
2022-11-05T23:50:12.624Z,97775.06
2022-11-05T23:53:14.164Z,97766.34
2022-11-05T23:56:15.887Z,97765.63
2022-11-05T23:59:17.384Z,97761.72
